首页
METAR-TAF:

METAR-TAF

机场 :

布里斯班, 澳大利亚

布里斯班機場

纬度: 27-23S, 经度: 153-06E, 海拔: 4米

当前天气观测

该预报发布于17分钟前的13:00 UTC
风速5节,风向南转西南
温度 22°C
湿度 65%
气压 1018 hPa
能见度10公里或以上
少量云层高于3700英尺
散云层高于2000英尺

METAR: YBBN 171300Z 17006KT 9999 FEW037 22/15 Q1018 FM1400 20005KT 9999 SCT020

时间: 23:17 (13:17 UTC)

预报

该预报发布于2小时和6分钟前的11:11 UTC
预报有效从17日的 12点(UTC)到 18日的 18点(UTC)
风速8节,风向东转东南
能见度10公里或以上
少量云层高于2500英尺
从 17日的 1400点(UTC)
风速5节,风向南转西南
能见度10公里或以上
散云层高于2000英尺
从 17日的 2300点(UTC)
风速10节,风向南转南东
能见度10公里或以上
1500米以下无云,无积雨云
从 18日的 0200点(UTC)
风速12节,风向
能见度10公里或以上
1500米以下无云,无积雨云
从 18日的 0800点(UTC)
风速10节,风向东南
能见度10公里或以上
少量云层高于2500英尺
从 18日的 1600点(UTC)
风速5节,风向
能见度10公里或以上
1500米以下无云,无积雨云

TAF: YBBN 171111Z 1712/1818 12008KT 9999 FEW025 FM171400 20005KT 9999 SCT020 FM172300 15010KT CAVOK FM180200 08012KT CAVOK FM180800 13010KT 9999 FEW025 FM181600 19005KT CAVOK

超过4000个机场的气象观测和天气预报(METAR&TAF报告)。

可查询的气象台以黄色和红色小点在地图上表示。

将鼠标移到小点上方,可查看气象台名称。

然后点击查看天气观测和预报。

如需切换地图:点击带黑十字的绿色按钮放大地图;点击带横线的绿色按钮缩小地图;或者点击绿色箭头查看邻近地区的地图。


METAR-TAF: